createdAt,value
2016-01-30T00:00:19.073Z,1001.12
2016-01-30T00:01:19.029Z,1001.1
2016-01-30T00:02:19.031Z,1001.11
2016-01-30T00:03:19.066Z,1001.11
2016-01-30T00:04:22.053Z,1001.12
2016-01-30T00:05:19.011Z,1001.05
2016-01-30T00:06:18.997Z,1001.04
2016-01-30T00:07:18.984Z,1001.02
2016-01-30T00:08:18.984Z,1000.99
2016-01-30T00:09:18.989Z,1000.98
2016-01-30T00:10:18.991Z,1000.94
2016-01-30T00:11:18.979Z,1000.99
2016-01-30T00:12:18.982Z,1001
2016-01-30T00:13:18.985Z,1001
2016-01-30T00:14:18.977Z,1001.01
2016-01-30T00:15:19.010Z,1000.97
2016-01-30T00:16:18.968Z,1000.97
2016-01-30T00:17:18.970Z,1000.97
2016-01-30T00:18:18.958Z,1001.02
2016-01-30T00:19:18.975Z,1001.05
2016-01-30T00:20:19.026Z,1001.01
2016-01-30T00:21:18.967Z,1001.03
2016-01-30T00:22:18.953Z,1001.07
2016-01-30T00:23:18.956Z,1001.06
2016-01-30T00:24:18.946Z,1001.06
2016-01-30T00:25:18.965Z,1001.07
2016-01-30T00:26:18.937Z,1001.08
2016-01-30T00:27:18.955Z,1001.12
2016-01-30T00:28:18.944Z,1001.1
2016-01-30T00:29:18.948Z,1001.12
2016-01-30T00:30:19.012Z,1001.12
2016-01-30T00:31:18.937Z,1001.09
2016-01-30T00:32:18.928Z,1001.07
2016-01-30T00:33:18.931Z,1001.03
2016-01-30T00:34:18.934Z,1001.03
2016-01-30T00:35:18.953Z,1000.98
2016-01-30T00:36:18.916Z,1000.92
2016-01-30T00:37:18.919Z,1000.95
2016-01-30T00:38:18.921Z,1000.92
2016-01-30T00:39:18.924Z,1000.91
2016-01-30T00:40:18.943Z,1000.92
2016-01-30T00:41:18.913Z,1000.93
2016-01-30T00:42:18.901Z,1000.97
2016-01-30T00:43:18.906Z,1000.99
2016-01-30T00:44:18.908Z,1001.06
2016-01-30T00:45:18.942Z,1001.02
2016-01-30T00:46:18.904Z,1001.07
2016-01-30T00:47:18.890Z,1001.03
2016-01-30T00:48:18.940Z,1001.1
2016-01-30T00:49:18.943Z,1001.1
2016-01-30T00:50:18.945Z,1001.11
2016-01-30T00:51:18.950Z,1001.11
2016-01-30T00:52:18.906Z,1001.15
2016-01-30T00:53:18.908Z,1001.09
2016-01-30T00:54:18.927Z,1001.11
2016-01-30T00:55:18.977Z,1001.12
2016-01-30T00:56:18.899Z,1001.12
2016-01-30T00:57:18.916Z,1001.04
2016-01-30T00:58:18.904Z,1001.08
2016-01-30T00:59:18.999Z,1001.07
2016-01-30T01:00:18.955Z,1001.03
2016-01-30T01:01:18.896Z,1001.06
2016-01-30T01:02:18.871Z,1001.01
2016-01-30T01:03:18.904Z,1001.01
2016-01-30T01:04:18.855Z,1000.97
2016-01-30T01:05:18.889Z,1000.96
2016-01-30T01:06:18.849Z,1001.01
2016-01-30T01:07:18.836Z,1000.99
2016-01-30T01:08:18.839Z,1000.94
2016-01-30T01:09:18.846Z,1000.91
2016-01-30T01:10:18.834Z,1000.9
2016-01-30T01:11:18.837Z,1000.95
2016-01-30T01:12:18.824Z,1000.85
2016-01-30T01:13:18.826Z,1000.81
2016-01-30T01:14:18.830Z,1000.82
2016-01-30T01:15:18.818Z,1000.78
2016-01-30T01:16:18.808Z,1000.72
2016-01-30T01:17:18.811Z,1000.71
2016-01-30T01:18:18.814Z,1000.67
2016-01-30T01:19:18.817Z,1000.65
2016-01-30T01:20:18.803Z,1000.72
2016-01-30T01:21:19.042Z,1000.62
2016-01-30T01:22:18.809Z,1000.67
2016-01-30T01:23:18.797Z,1000.64
2016-01-30T01:24:18.784Z,1000.65
2016-01-30T01:25:18.866Z,1000.6
2016-01-30T01:26:18.774Z,1000.64
2016-01-30T01:27:18.777Z,1000.6
2016-01-30T01:28:18.780Z,1000.57
2016-01-30T01:29:18.768Z,1000.59
2016-01-30T01:30:18.786Z,1000.58
2016-01-30T01:31:18.774Z,1000.58
2016-01-30T01:32:18.761Z,1000.61
2016-01-30T01:33:18.764Z,1000.54
2016-01-30T01:34:18.752Z,1000.54
2016-01-30T01:35:18.817Z,1000.53
2016-01-30T01:36:18.747Z,1000.54
2016-01-30T01:37:18.751Z,1000.46
2016-01-30T01:38:18.737Z,1000.47
2016-01-30T01:39:18.741Z,1000.48
2016-01-30T01:40:18.744Z,1000.42
2016-01-30T01:41:18.746Z,1000.48
2016-01-30T01:42:18.734Z,1000.47
2016-01-30T01:43:18.737Z,1000.44
2016-01-30T01:44:18.749Z,1000.44
2016-01-30T01:45:18.815Z,1000.41
2016-01-30T01:46:18.724Z,1000.36
2016-01-30T01:47:18.711Z,1000.38
2016-01-30T01:48:18.730Z,1000.34
2016-01-30T01:49:18.717Z,1000.31
2016-01-30T01:50:18.705Z,1000.28
2016-01-30T01:51:18.708Z,1000.29
2016-01-30T01:52:18.726Z,1000.24
2016-01-30T01:53:18.714Z,1000.18
2016-01-30T01:54:18.717Z,1000.19
2016-01-30T01:55:18.767Z,1000.21
2016-01-30T01:56:18.707Z,1000.18
2016-01-30T01:57:18.694Z,1000.12
2016-01-30T01:58:18.698Z,1000.09
2016-01-30T01:59:18.686Z,1000.07
2016-01-30T02:00:18.704Z,1000.02
2016-01-30T02:01:18.691Z,999.97
2016-01-30T02:02:18.694Z,999.94
2016-01-30T02:03:18.697Z,999.9
2016-01-30T02:04:18.700Z,999.92
2016-01-30T02:05:18.686Z,999.82
2016-01-30T02:06:18.673Z,999.82
2016-01-30T02:07:18.679Z,999.73
2016-01-30T02:08:18.697Z,999.72
2016-01-30T02:09:18.684Z,999.76
2016-01-30T02:10:18.687Z,999.68
2016-01-30T02:11:18.689Z,999.68
2016-01-30T02:12:18.693Z,999.65
2016-01-30T02:13:18.726Z,999.64
2016-01-30T02:14:18.698Z,999.61
2016-01-30T02:15:18.811Z,999.66
2016-01-30T02:16:18.720Z,999.65
2016-01-30T02:17:18.739Z,999.65
2016-01-30T02:18:18.757Z,999.61
2016-01-30T02:19:18.745Z,999.56
2016-01-30T02:20:18.715Z,999.59
2016-01-30T02:21:18.734Z,999.59
2016-01-30T02:22:18.643Z,999.57
2016-01-30T02:23:18.645Z,999.55
2016-01-30T02:24:18.664Z,999.52
2016-01-30T02:25:18.668Z,999.51
2016-01-30T02:26:18.654Z,999.51
2016-01-30T02:27:18.657Z,999.51
2016-01-30T02:28:18.676Z,999.48
2016-01-30T02:29:18.678Z,999.45
2016-01-30T02:30:18.762Z,999.42
2016-01-30T02:31:18.656Z,999.41
2016-01-30T02:32:18.642Z,999.35
2016-01-30T02:33:18.645Z,999.4
2016-01-30T02:34:18.620Z,999.32
2016-01-30T02:35:18.669Z,999.3
2016-01-30T02:36:18.625Z,999.27
2016-01-30T02:37:18.612Z,999.27
2016-01-30T02:38:18.600Z,999.27
2016-01-30T02:39:18.603Z,999.27
2016-01-30T02:40:18.637Z,999.33
2016-01-30T02:41:18.590Z,999.31
2016-01-30T02:42:18.593Z,999.26
2016-01-30T02:43:18.581Z,999.23
2016-01-30T02:44:18.584Z,999.19
2016-01-30T02:45:18.634Z,999.11
2016-01-30T02:46:18.574Z,999.08
2016-01-30T02:47:18.592Z,999.09
2016-01-30T02:48:18.564Z,999.11
2016-01-30T02:49:18.571Z,999.12
2016-01-30T02:50:18.573Z,999.07
2016-01-30T02:51:18.560Z,999.1
2016-01-30T02:52:18.563Z,999.13
2016-01-30T02:53:18.550Z,999.1
2016-01-30T02:54:18.553Z,999.11
2016-01-30T02:55:18.546Z,999.07
2016-01-30T02:56:18.523Z,999.09
2016-01-30T02:57:18.515Z,999.07
2016-01-30T02:58:18.491Z,999.09
2016-01-30T02:59:18.485Z,999.03
2016-01-30T03:00:18.484Z,999.02
2016-01-30T03:01:18.469Z,999.05
2016-01-30T03:02:18.467Z,999
2016-01-30T03:03:18.469Z,998.99
2016-01-30T03:04:18.468Z,998.97
2016-01-30T03:05:18.515Z,999
2016-01-30T03:06:18.438Z,998.99
2016-01-30T03:07:18.443Z,999
2016-01-30T03:08:18.429Z,999.03
2016-01-30T03:09:18.431Z,999.03
2016-01-30T03:10:18.433Z,999.02
2016-01-30T03:11:18.419Z,999.07
2016-01-30T03:12:18.424Z,999.07
2016-01-30T03:13:18.426Z,999.04
2016-01-30T03:14:18.416Z,999.05
2016-01-30T03:15:18.419Z,999.04
2016-01-30T03:16:18.407Z,999.08
2016-01-30T03:17:18.393Z,999.03
2016-01-30T03:18:18.396Z,998.98
2016-01-30T03:19:18.399Z,999.01
2016-01-30T03:20:18.449Z,999.01
2016-01-30T03:21:18.389Z,998.95
2016-01-30T03:22:18.395Z,998.99
2016-01-30T03:23:18.397Z,998.97
2016-01-30T03:24:18.385Z,998.93
2016-01-30T03:25:18.450Z,998.93
2016-01-30T03:26:18.376Z,998.86
2016-01-30T03:27:18.378Z,998.84
2016-01-30T03:28:18.380Z,998.84
2016-01-30T03:29:18.368Z,998.83
2016-01-30T03:30:18.417Z,998.82
2016-01-30T03:31:18.362Z,998.77
2016-01-30T03:32:18.349Z,998.84
2016-01-30T03:33:18.351Z,998.81
2016-01-30T03:34:18.354Z,998.81
2016-01-30T03:35:18.359Z,998.77
2016-01-30T03:36:18.330Z,998.77
2016-01-30T03:37:18.335Z,998.76
2016-01-30T03:38:18.338Z,998.75
2016-01-30T03:39:18.331Z,998.75
2016-01-30T03:40:18.318Z,998.7
2016-01-30T03:41:18.321Z,998.71
2016-01-30T03:42:18.324Z,998.69
2016-01-30T03:43:18.312Z,998.69
2016-01-30T03:44:18.315Z,998.66
2016-01-30T03:45:18.302Z,998.67
2016-01-30T03:46:18.305Z,998.63
2016-01-30T03:47:18.308Z,998.59
2016-01-30T03:48:18.295Z,998.57
2016-01-30T03:49:18.297Z,998.6
2016-01-30T03:50:18.317Z,998.58
2016-01-30T03:51:18.288Z,998.53
2016-01-30T03:52:18.275Z,998.54
2016-01-30T03:53:18.278Z,998.58
2016-01-30T03:54:18.281Z,998.54
2016-01-30T03:55:18.283Z,998.58
2016-01-30T03:56:18.270Z,998.56
2016-01-30T03:57:18.258Z,998.53
2016-01-30T03:58:18.261Z,998.54
2016-01-30T03:59:18.247Z,998.5
2016-01-30T04:00:18.330Z,998.49
2016-01-30T04:01:18.240Z,998.41
2016-01-30T04:02:18.242Z,998.44
2016-01-30T04:03:18.245Z,998.39
2016-01-30T04:04:18.233Z,998.35
2016-01-30T04:05:18.251Z,998.39
2016-01-30T04:06:18.254Z,998.33
2016-01-30T04:07:18.225Z,998.29
2016-01-30T04:08:18.216Z,998.3
2016-01-30T04:09:18.219Z,998.3
2016-01-30T04:10:18.236Z,998.31
2016-01-30T04:11:18.210Z,998.28
2016-01-30T04:12:18.197Z,998.3
2016-01-30T04:13:18.199Z,998.26
2016-01-30T04:14:18.187Z,998.27
2016-01-30T04:15:18.252Z,998.26
2016-01-30T04:16:18.192Z,998.22
2016-01-30T04:17:18.179Z,998.21
2016-01-30T04:18:18.182Z,998.17
2016-01-30T04:19:18.169Z,998.16
2016-01-30T04:20:18.171Z,998.11
2016-01-30T04:21:18.159Z,998.11
2016-01-30T04:22:18.161Z,998.12
2016-01-30T04:23:18.199Z,998.11
2016-01-30T04:24:18.202Z,998.1
2016-01-30T04:25:18.283Z,998.12
2016-01-30T04:26:18.142Z,998.09
2016-01-30T04:27:18.149Z,998.08
2016-01-30T04:28:18.137Z,998.1
2016-01-30T04:29:18.124Z,998.07
2016-01-30T04:30:18.173Z,998.07
2016-01-30T04:31:18.145Z,998.09
2016-01-30T04:32:18.119Z,998.09
2016-01-30T04:33:18.110Z,998.06
2016-01-30T04:34:18.116Z,998.05
2016-01-30T04:35:18.181Z,998.02
2016-01-30T04:36:18.105Z,998.02
2016-01-30T04:37:18.092Z,998.08
2016-01-30T04:38:18.094Z,998.06
2016-01-30T04:39:18.082Z,998.01
2016-01-30T04:40:18.116Z,998
2016-01-30T04:41:18.072Z,998.01
2016-01-30T04:42:18.078Z,997.92
2016-01-30T04:43:18.082Z,997.86
2016-01-30T04:44:18.069Z,997.92
2016-01-30T04:45:18.072Z,997.84
2016-01-30T04:46:18.061Z,997.86
2016-01-30T04:47:18.047Z,997.83
2016-01-30T04:48:18.050Z,997.86
2016-01-30T04:49:18.052Z,997.84
2016-01-30T04:50:18.086Z,997.82
2016-01-30T04:51:18.042Z,997.75
2016-01-30T04:52:18.030Z,997.77
2016-01-30T04:53:18.033Z,997.73
2016-01-30T04:54:18.035Z,997.7
2016-01-30T04:55:18.101Z,997.72
2016-01-30T04:56:18.043Z,997.71
2016-01-30T04:57:18.029Z,997.67
2016-01-30T04:58:18.032Z,997.67
2016-01-30T04:59:18.005Z,997.65
2016-01-30T05:00:18.086Z,997.65
2016-01-30T05:01:17.999Z,997.59
2016-01-30T05:02:18.001Z,997.62
2016-01-30T05:03:17.988Z,997.55
2016-01-30T05:04:17.991Z,997.57
2016-01-30T05:05:18.059Z,997.62
2016-01-30T05:06:17.983Z,997.61
2016-01-30T05:07:17.970Z,997.59
2016-01-30T05:08:17.973Z,997.59
2016-01-30T05:09:17.976Z,997.5
2016-01-30T05:10:17.981Z,997.57
2016-01-30T05:11:17.968Z,997.55
2016-01-30T05:12:17.956Z,997.54
2016-01-30T05:13:17.962Z,997.58
2016-01-30T05:14:17.949Z,997.5
2016-01-30T05:15:17.967Z,997.5
2016-01-30T05:16:17.954Z,997.54
2016-01-30T05:17:17.941Z,997.51
2016-01-30T05:18:17.946Z,997.54
2016-01-30T05:19:17.932Z,997.5
2016-01-30T05:20:17.924Z,997.46
2016-01-30T05:21:17.927Z,997.47
2016-01-30T05:22:17.915Z,997.45
2016-01-30T05:23:17.917Z,997.43
2016-01-30T05:24:17.920Z,997.41
2016-01-30T05:25:17.906Z,997.47
2016-01-30T05:26:17.909Z,997.44
2016-01-30T05:27:17.896Z,997.47
2016-01-30T05:28:17.898Z,997.49
2016-01-30T05:29:17.902Z,997.5
2016-01-30T05:30:17.889Z,997.46
2016-01-30T05:31:17.908Z,997.45
2016-01-30T05:32:17.879Z,997.43
2016-01-30T05:33:17.883Z,997.43
2016-01-30T05:34:17.886Z,997.42
2016-01-30T05:35:17.888Z,997.38
2016-01-30T05:36:17.860Z,997.36
2016-01-30T05:37:17.864Z,997.35
2016-01-30T05:38:17.850Z,997.34
2016-01-30T05:39:17.854Z,997.36
2016-01-30T05:40:17.857Z,997.34
2016-01-30T05:41:17.844Z,997.34
2016-01-30T05:42:17.846Z,997.32
2016-01-30T05:43:17.847Z,997.39
2016-01-30T05:44:17.834Z,997.34
2016-01-30T05:45:17.884Z,997.32
2016-01-30T05:46:17.824Z,997.29
2016-01-30T05:47:17.828Z,997.31
2016-01-30T05:48:17.816Z,997.28
2016-01-30T05:49:17.803Z,997.25
2016-01-30T05:50:17.836Z,997.21
2016-01-30T05:51:17.808Z,997.25
2016-01-30T05:52:17.796Z,997.26
2016-01-30T05:53:17.798Z,997.28
2016-01-30T05:54:17.801Z,997.26
2016-01-30T05:55:17.836Z,997.27
2016-01-30T05:56:17.778Z,997.25
2016-01-30T05:57:17.781Z,997.3
2016-01-30T05:58:17.785Z,997.25
2016-01-30T05:59:17.772Z,997.25
2016-01-30T06:00:17.759Z,997.24
2016-01-30T06:01:17.762Z,997.24
2016-01-30T06:02:17.746Z,997.25
2016-01-30T06:03:17.749Z,997.25
2016-01-30T06:04:17.751Z,997.2
2016-01-30T06:05:17.754Z,997.18
2016-01-30T06:06:17.729Z,997.25
2016-01-30T06:07:17.732Z,997.23
2016-01-30T06:08:17.734Z,997.18
2016-01-30T06:09:17.738Z,997.15
2016-01-30T06:10:17.755Z,997.17
2016-01-30T06:11:17.712Z,997.15
2016-01-30T06:12:17.715Z,997.15
2016-01-30T06:13:17.717Z,997.17
2016-01-30T06:14:17.705Z,997.16
2016-01-30T06:15:17.715Z,997.14
2016-01-30T06:16:17.701Z,997.18
2016-01-30T06:17:17.693Z,997.13
2016-01-30T06:18:17.680Z,997.07
2016-01-30T06:19:17.683Z,997.09
2016-01-30T06:20:17.670Z,997.1
2016-01-30T06:21:17.674Z,997.04
2016-01-30T06:22:17.661Z,997.09
2016-01-30T06:23:17.663Z,997.04
2016-01-30T06:24:17.666Z,997.02
2016-01-30T06:25:17.717Z,997.04
2016-01-30T06:26:17.657Z,997.04
2016-01-30T06:27:17.644Z,996.99
2016-01-30T06:28:17.647Z,997
2016-01-30T06:29:17.634Z,997.02
2016-01-30T06:30:17.716Z,997
2016-01-30T06:31:17.625Z,997.01
2016-01-30T06:32:17.658Z,996.98
2016-01-30T06:33:17.614Z,996.95
2016-01-30T06:34:17.618Z,996.96
2016-01-30T06:35:17.620Z,996.96
2016-01-30T06:36:17.608Z,996.96
2016-01-30T06:37:17.610Z,996.98
2016-01-30T06:38:17.601Z,996.95
2016-01-30T06:39:17.588Z,996.94
2016-01-30T06:40:17.653Z,996.95
2016-01-30T06:41:17.625Z,996.9
2016-01-30T06:42:17.581Z,996.87
2016-01-30T06:43:17.583Z,996.81
2016-01-30T06:44:17.570Z,996.89
2016-01-30T06:45:17.636Z,996.91
2016-01-30T06:46:17.561Z,996.88
2016-01-30T06:47:17.564Z,996.89
2016-01-30T06:48:17.552Z,996.86
2016-01-30T06:49:17.559Z,996.88
2016-01-30T06:50:17.546Z,996.87
2016-01-30T06:51:17.549Z,996.88
2016-01-30T06:52:17.535Z,996.87
2016-01-30T06:53:17.539Z,996.85
2016-01-30T06:54:17.542Z,996.86
2016-01-30T06:55:17.530Z,996.83
2016-01-30T06:56:17.532Z,996.83
2016-01-30T06:57:17.519Z,996.8
2016-01-30T06:58:17.522Z,996.76
2016-01-30T06:59:17.509Z,996.76
2016-01-30T07:00:17.574Z,996.74
2016-01-30T07:01:17.514Z,996.73
2016-01-30T07:02:17.502Z,996.73
2016-01-30T07:03:17.504Z,996.76
2016-01-30T07:04:17.507Z,996.72
2016-01-30T07:05:17.525Z,996.67
2016-01-30T07:06:17.482Z,996.68
2016-01-30T07:07:17.484Z,996.65
2016-01-30T07:08:17.488Z,996.66
2016-01-30T07:09:17.475Z,996.64
2016-01-30T07:10:17.478Z,996.63
2016-01-30T07:11:17.464Z,996.59
2016-01-30T07:12:17.468Z,996.61
2016-01-30T07:13:17.456Z,996.59
2016-01-30T07:14:17.459Z,996.57
2016-01-30T07:15:17.446Z,996.58
2016-01-30T07:16:17.450Z,996.53
2016-01-30T07:17:17.439Z,996.54
2016-01-30T07:18:17.443Z,996.52
2016-01-30T07:19:17.430Z,996.51
2016-01-30T07:20:17.433Z,996.53
2016-01-30T07:21:17.437Z,996.52
2016-01-30T07:22:17.423Z,996.49
2016-01-30T07:23:17.430Z,996.49
2016-01-30T07:24:17.416Z,996.5
2016-01-30T07:25:17.419Z,996.45
2016-01-30T07:26:17.406Z,996.48
2016-01-30T07:27:17.410Z,996.54
2016-01-30T07:28:17.413Z,996.47
2016-01-30T07:29:17.399Z,996.48
2016-01-30T07:30:17.449Z,996.5
2016-01-30T07:31:17.394Z,996.48
2016-01-30T07:32:17.396Z,996.49
2016-01-30T07:33:17.384Z,996.48
2016-01-30T07:34:17.387Z,996.49
2016-01-30T07:35:17.389Z,996.51
2016-01-30T07:36:17.375Z,996.5
2016-01-30T07:37:17.379Z,996.49
2016-01-30T07:38:17.381Z,996.55
2016-01-30T07:39:17.383Z,996.49
2016-01-30T07:40:17.449Z,996.5
2016-01-30T07:41:17.373Z,996.51
2016-01-30T07:42:17.380Z,996.47
2016-01-30T07:43:17.382Z,996.46
2016-01-30T07:44:17.370Z,996.42
2016-01-30T07:45:17.373Z,996.38
2016-01-30T07:46:17.368Z,996.34
2016-01-30T07:47:17.371Z,996.34
2016-01-30T07:48:17.374Z,996.3
2016-01-30T07:49:17.377Z,996.27
2016-01-30T07:50:17.396Z,996.28
2016-01-30T07:51:17.364Z,996.3
2016-01-30T07:52:17.367Z,996.29
2016-01-30T07:53:17.370Z,996.25
2016-01-30T07:54:17.373Z,996.23
2016-01-30T07:55:17.376Z,996.16
2016-01-30T07:56:17.363Z,996.17
2016-01-30T07:57:17.367Z,996.15
2016-01-30T07:58:17.369Z,996.18
2016-01-30T07:59:17.372Z,996.13
2016-01-30T08:00:17.359Z,996.11
2016-01-30T08:01:17.377Z,996.08
2016-01-30T08:02:17.364Z,996.09
2016-01-30T08:03:17.367Z,996.08
2016-01-30T08:04:17.369Z,996
2016-01-30T08:05:17.356Z,996.03
2016-01-30T08:06:17.359Z,995.97
2016-01-30T08:07:17.361Z,995.97
2016-01-30T08:08:17.364Z,995.96
2016-01-30T08:09:17.353Z,995.95
2016-01-30T08:10:17.371Z,996
2016-01-30T08:11:17.358Z,995.96
2016-01-30T08:12:17.361Z,995.9
2016-01-30T08:13:17.349Z,995.93
2016-01-30T08:14:17.352Z,995.94
2016-01-30T08:15:17.402Z,995.95
2016-01-30T08:16:17.345Z,995.87
2016-01-30T08:17:17.364Z,995.86
2016-01-30T08:18:17.366Z,995.75
2016-01-30T08:19:17.353Z,995.67
2016-01-30T08:20:17.356Z,995.69
2016-01-30T08:21:17.343Z,995.56
2016-01-30T08:22:17.346Z,995.53
2016-01-30T08:23:17.349Z,995.54
2016-01-30T08:24:17.335Z,995.57
2016-01-30T08:25:17.416Z,995.55
2016-01-30T08:26:17.340Z,995.56
2016-01-30T08:27:17.343Z,995.5
2016-01-30T08:28:17.334Z,995.48
2016-01-30T08:29:17.336Z,995.47
2016-01-30T08:30:17.339Z,995.49
2016-01-30T08:31:17.342Z,995.58
2016-01-30T08:32:17.339Z,995.62
2016-01-30T08:33:17.357Z,995.7
2016-01-30T08:34:17.345Z,995.62
2016-01-30T08:35:17.331Z,995.61
2016-01-30T08:36:17.334Z,995.54
2016-01-30T08:37:17.353Z,995.54
2016-01-30T08:38:17.339Z,995.52
2016-01-30T08:39:17.342Z,995.47
2016-01-30T08:40:17.392Z,995.5
2016-01-30T08:41:17.332Z,995.43
2016-01-30T08:42:17.349Z,995.44
2016-01-30T08:43:17.336Z,995.35
2016-01-30T08:44:17.339Z,995.34
2016-01-30T08:45:17.342Z,995.23
2016-01-30T08:46:17.344Z,995.23
2016-01-30T08:47:17.336Z,995.17
2016-01-30T08:48:17.334Z,995.21
2016-01-30T08:49:17.339Z,995.23
2016-01-30T08:50:17.372Z,995.19
2016-01-30T08:51:17.347Z,995.28
2016-01-30T08:52:17.350Z,995.2
2016-01-30T08:53:17.336Z,995.23
2016-01-30T08:54:17.340Z,995.18
2016-01-30T08:55:17.343Z,995.21
2016-01-30T08:56:17.346Z,995.23
2016-01-30T08:57:17.348Z,995.21
2016-01-30T08:58:17.367Z,995.21
2016-01-30T08:59:17.338Z,995.3
2016-01-30T09:00:17.341Z,995.28
2016-01-30T09:01:17.360Z,995.24
2016-01-30T09:02:17.346Z,995.29
2016-01-30T09:03:17.349Z,995.25
2016-01-30T09:04:17.351Z,995.24
2016-01-30T09:05:17.355Z,995.22
2016-01-30T09:06:17.362Z,995.25
2016-01-30T09:07:17.364Z,995.24
2016-01-30T09:08:17.367Z,995.25
2016-01-30T09:09:17.355Z,995.23
2016-01-30T09:10:17.357Z,995.17
2016-01-30T09:11:17.360Z,995.12
2016-01-30T09:12:17.362Z,995.09
2016-01-30T09:13:17.368Z,995.08
2016-01-30T09:14:17.362Z,995.07
2016-01-30T09:15:17.366Z,995.02
2016-01-30T09:16:17.368Z,995.03
2016-01-30T09:17:17.370Z,995.04
2016-01-30T09:18:17.373Z,995.02
2016-01-30T09:19:17.376Z,995.03
2016-01-30T09:20:17.379Z,995.04
2016-01-30T09:21:17.382Z,994.98
2016-01-30T09:22:17.385Z,995.03
2016-01-30T09:23:17.372Z,995.06
2016-01-30T09:24:17.390Z,995.05
2016-01-30T09:25:17.613Z,995
2016-01-30T09:26:17.382Z,994.95
2016-01-30T09:27:17.384Z,994.9
2016-01-30T09:28:17.387Z,994.94
2016-01-30T09:29:17.389Z,994.92
2016-01-30T09:30:17.394Z,994.96
2016-01-30T09:31:17.397Z,994.91
2016-01-30T09:32:17.400Z,994.92
2016-01-30T09:33:17.403Z,994.82
2016-01-30T09:34:17.411Z,994.73
2016-01-30T09:35:17.414Z,994.71
2016-01-30T09:36:17.416Z,994.7
2016-01-30T09:37:17.419Z,994.7
2016-01-30T09:38:17.425Z,994.7
2016-01-30T09:39:17.411Z,994.62
2016-01-30T09:40:17.461Z,994.64
2016-01-30T09:41:17.414Z,994.61
2016-01-30T09:42:17.417Z,994.65
2016-01-30T09:43:17.435Z,994.67
2016-01-30T09:44:17.441Z,994.56
2016-01-30T09:45:17.428Z,994.53
2016-01-30T09:46:17.431Z,994.56
2016-01-30T09:47:17.434Z,994.59
2016-01-30T09:48:17.436Z,994.57
2016-01-30T09:49:17.439Z,994.62
2016-01-30T09:50:17.457Z,994.53
2016-01-30T09:51:17.461Z,994.46
2016-01-30T09:52:17.447Z,994.45
2016-01-30T09:53:17.450Z,994.48
2016-01-30T09:54:17.453Z,994.48
2016-01-30T09:55:17.456Z,994.42
2016-01-30T09:56:17.459Z,994.35
2016-01-30T09:57:17.463Z,994.34
2016-01-30T09:58:17.466Z,994.34
2016-01-30T09:59:17.469Z,994.31
2016-01-30T10:00:17.471Z,994.22
2016-01-30T10:01:17.474Z,994.19
2016-01-30T10:02:17.461Z,994.15
2016-01-30T10:03:17.479Z,994.16
2016-01-30T10:04:17.498Z,994.01
2016-01-30T10:05:17.485Z,993.9
2016-01-30T10:06:17.488Z,993.99
2016-01-30T10:07:17.475Z,993.96
2016-01-30T10:08:17.477Z,993.89
2016-01-30T10:09:17.479Z,993.88
2016-01-30T10:10:17.498Z,993.74
2016-01-30T10:11:17.485Z,993.86
2016-01-30T10:12:17.488Z,993.8
2016-01-30T10:13:17.491Z,993.83
2016-01-30T10:14:17.494Z,993.81
2016-01-30T10:15:17.560Z,993.78
2016-01-30T10:16:17.507Z,993.78
2016-01-30T10:17:17.510Z,993.71
2016-01-30T10:18:17.498Z,993.84
2016-01-30T10:19:17.501Z,993.79
2016-01-30T10:20:17.549Z,993.79
2016-01-30T10:21:17.506Z,993.76
2016-01-30T10:22:17.508Z,993.79
2016-01-30T10:23:17.511Z,993.79
2016-01-30T10:24:17.514Z,993.78
2016-01-30T10:25:17.517Z,993.7
2016-01-30T10:26:17.520Z,993.75
2016-01-30T10:27:17.522Z,993.82
2016-01-30T10:28:17.525Z,993.67
2016-01-30T10:29:17.528Z,993.65
2016-01-30T10:30:17.531Z,993.62
2016-01-30T10:31:17.534Z,993.64
2016-01-30T10:32:17.537Z,993.58
2016-01-30T10:33:17.523Z,993.46
2016-01-30T10:34:17.542Z,993.49
2016-01-30T10:35:17.546Z,993.49
2016-01-30T10:36:17.533Z,993.35
2016-01-30T10:37:17.552Z,993.39
2016-01-30T10:38:17.538Z,993.42
2016-01-30T10:39:17.557Z,993.35
2016-01-30T10:40:17.598Z,993.38
2016-01-30T10:41:17.569Z,993.41
2016-01-30T10:42:17.556Z,993.39
2016-01-30T10:43:17.559Z,993.38
2016-01-30T10:44:17.562Z,993.37
2016-01-30T10:45:17.555Z,993.41
2016-01-30T10:46:17.558Z,993.34
2016-01-30T10:47:17.560Z,993.49
2016-01-30T10:48:17.580Z,993.41
2016-01-30T10:49:17.582Z,993.37
2016-01-30T10:50:17.619Z,993.39
2016-01-30T10:51:17.574Z,993.33
2016-01-30T10:52:17.577Z,993.26
2016-01-30T10:53:17.564Z,993.28
2016-01-30T10:54:17.583Z,993.23
2016-01-30T10:55:17.573Z,993.14
2016-01-30T10:56:17.575Z,993.14
2016-01-30T10:57:17.578Z,993.13
2016-01-30T10:58:17.581Z,993.15
2016-01-30T10:59:17.585Z,993.06
2016-01-30T11:00:17.588Z,993.09
2016-01-30T11:01:17.591Z,993.02
2016-01-30T11:02:17.594Z,993.05
2016-01-30T11:03:17.597Z,993.09
2016-01-30T11:04:17.600Z,993.03
2016-01-30T11:05:17.606Z,993.13
2016-01-30T11:06:17.608Z,992.84
2016-01-30T11:07:17.595Z,992.88
2016-01-30T11:08:17.598Z,992.91
2016-01-30T11:09:17.617Z,992.8
2016-01-30T11:10:17.620Z,992.79
2016-01-30T11:11:17.623Z,992.77
2016-01-30T11:12:17.609Z,992.76
2016-01-30T11:13:17.612Z,992.78
2016-01-30T11:14:17.618Z,992.72
2016-01-30T11:15:17.636Z,992.7
2016-01-30T11:16:17.639Z,992.71
2016-01-30T11:17:17.644Z,992.78
2016-01-30T11:18:17.633Z,992.76
2016-01-30T11:19:17.636Z,992.58
2016-01-30T11:20:17.624Z,992.6
2016-01-30T11:21:17.626Z,992.53
2016-01-30T11:22:17.629Z,992.47
2016-01-30T11:23:17.632Z,992.4
2016-01-30T11:24:17.634Z,992.25
2016-01-30T11:25:17.637Z,992.42
2016-01-30T11:26:17.641Z,992.44
2016-01-30T11:27:17.658Z,992.44
2016-01-30T11:28:17.646Z,992.46
2016-01-30T11:29:17.790Z,992.49
2016-01-30T11:30:17.745Z,992.44
2016-01-30T11:31:17.655Z,992.34
2016-01-30T11:32:17.658Z,992.39
2016-01-30T11:33:17.662Z,992.33
2016-01-30T11:34:17.665Z,992.25
2016-01-30T11:35:17.668Z,992.27
2016-01-30T11:36:17.670Z,992.22
2016-01-30T11:37:17.674Z,992.16
2016-01-30T11:38:17.677Z,992.16
2016-01-30T11:39:17.664Z,991.98
2016-01-30T11:40:17.792Z,991.99
2016-01-30T11:41:17.673Z,991.83
2016-01-30T11:42:17.675Z,991.93
2016-01-30T11:43:17.678Z,991.86
2016-01-30T11:44:17.681Z,991.78
2016-01-30T11:45:17.745Z,991.84
2016-01-30T11:46:17.686Z,991.75
2016-01-30T11:47:17.691Z,991.72
2016-01-30T11:48:17.694Z,991.67
2016-01-30T11:49:17.697Z,991.7
2016-01-30T11:50:17.700Z,991.69
2016-01-30T11:51:17.686Z,991.62
2016-01-30T11:52:17.689Z,991.69
2016-01-30T11:53:17.692Z,991.61
2016-01-30T11:54:17.695Z,991.55
2016-01-30T11:55:17.744Z,991.48
2016-01-30T11:56:17.702Z,991.41
2016-01-30T11:57:17.705Z,991.41
2016-01-30T11:58:17.707Z,991.45
2016-01-30T11:59:17.710Z,991.45
2016-01-30T12:00:17.702Z,991.35
2016-01-30T12:01:17.707Z,991.46
2016-01-30T12:02:17.691Z,991.33
2016-01-30T12:03:17.678Z,991.35
2016-01-30T12:04:17.666Z,991.38
2016-01-30T12:05:17.641Z,991.4
2016-01-30T12:06:17.635Z,991.47
2016-01-30T12:07:17.648Z,991.43
2016-01-30T12:08:17.646Z,991.27
2016-01-30T12:09:17.627Z,991.37
2016-01-30T12:10:17.749Z,991.38
2016-01-30T12:11:17.922Z,991.29
2016-01-30T12:12:17.626Z,991.23
2016-01-30T12:13:17.626Z,991.15
2016-01-30T12:14:17.627Z,991.25
2016-01-30T12:15:17.723Z,991.36
2016-01-30T12:16:17.631Z,991.29
2016-01-30T12:17:17.643Z,991.32
2016-01-30T12:18:17.629Z,991.35
2016-01-30T12:19:17.630Z,991.21
2016-01-30T12:20:17.633Z,991.17
2016-01-30T12:21:17.636Z,991.27
2016-01-30T12:22:17.638Z,991.28
2016-01-30T12:23:17.625Z,991.23
2016-01-30T12:24:17.628Z,991.24
2016-01-30T12:25:17.631Z,991.3
2016-01-30T12:26:17.634Z,991.11
2016-01-30T12:27:17.637Z,991.13